Time;durP1;ratioP1;P1;durP2;ratioP2;P2;SDS_P1;SDS_P2;PMS_P1;PMS_P2;Temp;Humidity;BMP_temperature;BMP_pressure;BME280_temperature;BME280_humidity;BME280_pressure;Samples;Min_cycle;Max_cycle;Signal;HPM_P1;HPM_P2
2022/03/03 00:01:20;;;;;;;11.60;9.97;;;;;;;-0.44;81.53;101078.66;5053954;28;20528;-73
2022/03/03 00:03:45;;;;;;;16.47;10.37;;;;;;;-0.37;81.51;101086.66;5053910;28;20233;-73
2022/03/03 00:06:10;;;;;;;15.47;9.93;;;;;;;-0.37;81.40;101087.47;5053854;28;20651;-73
2022/03/03 00:08:36;;;;;;;11.40;9.70;;;;;;;-0.33;81.08;101083.28;5053508;28;20183;-73
2022/03/03 00:11:01;;;;;;;10.60;9.27;;;;;;;-0.35;81.72;101082.69;5053817;28;20225;-73
2022/03/03 00:13:26;;;;;;;13.87;9.50;;;;;;;-0.54;81.14;101072.19;5053723;28;20171;-72
2022/03/03 00:15:52;;;;;;;17.87;9.63;;;;;;;-0.68;82.64;101077.66;5053649;28;20616;-75
2022/03/03 00:18:17;;;;;;;12.93;9.60;;;;;;;-0.76;83.63;101071.75;5053576;28;20195;-73
2022/03/03 00:20:42;;;;;;;14.10;9.60;;;;;;;-0.81;83.91;101077.78;5053517;28;20262;-73
2022/03/03 00:23:08;;;;;;;11.40;9.63;;;;;;;-0.78;84.08;101077.34;5053037;28;20189;-73
2022/03/03 00:25:33;;;;;;;10.30;9.27;;;;;;;-0.89;84.40;101070.03;5053116;28;20179;-73
2022/03/03 00:28:02;;;;;;;9.27;8.00;;;;;;;-1.02;84.40;101064.78;5052266;28;20261;-73
2022/03/03 00:30:28;;;;;;;9.17;8.20;;;;;;;-1.10;85.38;101062.38;5053022;28;20336;-73
2022/03/03 00:32:53;;;;;;;11.57;8.20;;;;;;;-1.08;85.65;101071.03;5052946;28;20424;-72
2022/03/03 00:35:18;;;;;;;11.57;8.53;;;;;;;-1.12;85.72;101065.28;5052767;28;20207;-73
2022/03/03 00:37:44;;;;;;;9.77;8.77;;;;;;;-1.08;86.09;101068.34;5052539;28;20175;-73
2022/03/03 00:40:10;;;;;;;14.37;9.60;;;;;;;-1.25;86.47;101066.22;5052985;28;20209;-73
2022/03/03 00:42:35;;;;;;;10.57;9.43;;;;;;;-1.13;86.90;101070.88;5053168;28;20258;-73
2022/03/03 00:45:01;;;;;;;12.57;10.17;;;;;;;-0.89;87.97;101080.75;5052693;28;20592;-74
2022/03/03 00:47:26;;;;;;;17.50;11.87;;;;;;;-0.67;87.94;101075.81;5052508;28;20178;-73
2022/03/03 00:49:51;;;;;;;9.60;8.60;;;;;;;-0.58;87.28;101060.22;5052716;28;20206;-73
2022/03/03 00:52:17;;;;;;;11.07;8.57;;;;;;;-0.67;85.99;101044.44;5052479;28;20587;-73
2022/03/03 00:54:42;;;;;;;8.90;8.00;;;;;;;-0.81;85.15;101028.69;5052564;28;20262;-73
2022/03/03 00:57:07;;;;;;;11.90;9.90;;;;;;;-0.89;83.91;101027.09;5052105;28;20207;-72
2022/03/03 00:59:33;;;;;;;12.87;9.83;;;;;;;-1.13;83.05;101034.16;5052608;28;20175;-73
2022/03/03 01:01:58;;;;;;;11.67;9.23;;;;;;;-1.10;83.08;101027.53;5052395;28;20562;-73
2022/03/03 01:04:23;;;;;;;12.80;10.57;;;;;;;-0.91;83.03;101029.19;5050059;28;20211;-73
2022/03/03 01:06:50;;;;;;;10.87;9.83;;;;;;;-1.21;83.05;101024.53;5042547;28;20551;-75
2022/03/03 01:09:15;;;;;;;11.03;8.97;;;;;;;-1.37;83.43;101030.44;5052722;28;20171;-74
2022/03/03 01:11:40;;;;;;;11.70;10.43;;;;;;;-1.39;84.06;101029.81;5052943;28;20470;-74
2022/03/03 01:14:06;;;;;;;13.33;10.57;;;;;;;-1.64;84.95;101039.69;5052623;28;20175;-73
2022/03/03 01:16:31;;;;;;;12.10;10.40;;;;;;;-1.74;86.21;101040.16;5052413;28;20655;-73
2022/03/03 01:19:00;;;;;;;12.03;9.73;;;;;;;-1.82;86.83;101040.44;5052585;28;20182;-72
2022/03/03 01:21:25;;;;;;;11.00;9.27;;;;;;;-1.70;87.56;101027.19;5034421;28;20186;-73
2022/03/03 01:23:51;;;;;;;12.27;9.47;;;;;;;-1.45;86.90;101022.66;5052453;28;20414;-73
2022/03/03 01:26:17;;;;;;;12.70;9.67;;;;;;;-1.28;86.97;101022.94;5052306;28;20262;-73
2022/03/03 01:28:42;;;;;;;12.77;10.33;;;;;;;-1.10;86.77;101019.50;5052166;28;20275;-73
2022/03/03 01:31:08;;;;;;;11.77;10.10;;;;;;;-1.74;86.67;101017.91;5052360;28;20202;-74
2022/03/03 01:33:34;;;;;;;11.63;10.17;;;;;;;-2.08;88.03;101016.47;5052541;28;20175;-73
2022/03/03 01:35:59;;;;;;;13.40;10.93;;;;;;;-2.07;89.54;101010.09;5052176;28;20202;-73
2022/03/03 01:38:24;;;;;;;15.33;10.60;;;;;;;-1.69;89.51;101008.22;5052103;28;20202;-73
2022/03/03 01:40:50;;;;;;;13.30;10.73;;;;;;;-1.43;89.34;101004.50;5051621;28;20241;-73
2022/03/03 01:43:15;;;;;;;14.13;10.77;;;;;;;-1.29;89.61;101006.03;5052065;28;20182;-74
2022/03/03 01:45:41;;;;;;;13.53;10.53;;;;;;;-1.10;88.22;101006.91;5052010;28;20171;-73
2022/03/03 01:48:06;;;;;;;10.73;9.13;;;;;;;-1.12;87.22;101010.84;5051885;28;20171;-73
2022/03/03 01:50:32;;;;;;;16.57;9.80;;;;;;;-1.56;87.05;101016.16;5051676;28;20274;-73
2022/03/03 01:52:57;;;;;;;12.27;9.67;;;;;;;-1.48;87.33;101017.72;5051772;28;20258;-73
2022/03/03 01:55:24;;;;;;;12.43;10.87;;;;;;;-1.26;86.99;101020.88;5051370;28;20195;-73
2022/03/03 01:57:50;;;;;;;10.20;7.47;;;;;;;-1.21;86.24;101013.78;5051242;28;20700;-73
2022/03/03 02:00:17;;;;;;;11.23;8.97;;;;;;;-1.28;85.64;101014.91;5051261;28;20175;-73
2022/03/03 02:02:42;;;;;;;11.10;8.90;;;;;;;-1.30;85.55;101014.31;5051213;28;20199;-73
2022/03/03 02:05:08;;;;;;;13.13;9.33;;;;;;;-1.25;86.16;101020.66;5051072;28;20555;-74
2022/03/03 02:07:34;;;;;;;11.10;9.57;;;;;;;-1.26;86.15;101023.53;5032945;28;20187;-73
2022/03/03 02:10:04;;;;;;;14.80;10.43;;;;;;;-1.28;86.70;101010.38;5051101;28;20178;-73
2022/03/03 02:12:29;;;;;;;9.67;8.67;;;;;;;-1.11;87.67;101015.16;5051017;28;20410;-73
2022/03/03 02:14:54;;;;;;;9.63;8.63;;;;;;;-1.07;87.63;101001.09;5050809;28;20421;-74
2022/03/03 02:17:20;;;;;;;12.20;9.33;;;;;;;-1.51;87.04;100999.41;5050712;28;20183;-74
2022/03/03 02:19:45;;;;;;;10.93;9.63;;;;;;;-1.39;87.42;101010.25;5050669;28;20184;-74
2022/03/03 02:22:11;;;;;;;9.90;8.90;;;;;;;-1.14;87.45;101013.75;5032986;28;20176;-73
2022/03/03 02:24:37;;;;;;;10.93;9.83;;;;;;;-1.19;86.18;101000.16;5050945;28;20642;-73
2022/03/03 02:27:03;;;;;;;14.73;8.70;;;;;;;-1.33;85.96;100995.97;5050527;28;20206;-73
2022/03/03 02:29:29;;;;;;;15.03;9.87;;;;;;;-1.36;85.61;100994.53;5050859;28;20909;-73
2022/03/03 02:31:55;;;;;;;13.17;8.60;;;;;;;-1.51;85.89;100996.72;5050578;28;20469;-73
2022/03/03 02:34:21;;;;;;;10.03;9.03;;;;;;;-1.57;86.10;100992.25;5050456;28;21014;-73
2022/03/03 02:36:46;;;;;;;19.37;10.33;;;;;;;-2.02;87.64;100997.72;5032545;28;20234;-73
2022/03/03 02:39:12;;;;;;;12.90;9.47;;;;;;;-2.24;89.09;101002.56;5050610;28;20255;-74
2022/03/03 02:41:37;;;;;;;10.50;9.47;;;;;;;-1.95;89.81;100994.97;5050593;28;20179;-73
2022/03/03 02:44:03;;;;;;;12.00;10.17;;;;;;;-1.71;89.95;100994.22;5050624;28;20179;-74
2022/03/03 02:46:29;;;;;;;11.33;9.47;;;;;;;-1.57;89.88;100995.75;5050411;28;20237;-73
2022/03/03 02:48:55;;;;;;;12.43;10.40;;;;;;;-1.51;89.16;100997.56;5050132;28;20422;-74
2022/03/03 02:51:20;;;;;;;10.30;8.47;;;;;;;-1.53;88.17;100999.63;5050756;28;20672;-74
2022/03/03 02:53:46;;;;;;;12.47;10.23;;;;;;;-1.56;87.97;101018.00;5050437;28;20182;-73
2022/03/03 02:56:11;;;;;;;12.57;9.93;;;;;;;-1.45;88.48;101022.66;5050266;28;20210;-73
2022/03/03 02:58:37;;;;;;;17.27;9.07;;;;;;;-1.39;88.38;101018.28;5032047;28;20358;-74
2022/03/03 03:01:05;;;;;;;12.47;8.63;;;;;;;-1.72;87.20;100994.44;5050370;28;20530;-74
2022/03/03 03:03:30;;;;;;;12.63;8.57;;;;;;;-1.95;87.56;100987.78;5050113;28;20186;-74
2022/03/03 03:05:56;;;;;;;16.63;9.33;;;;;;;-1.97;88.45;101005.09;5050146;28;20414;-73
2022/03/03 03:08:21;;;;;;;12.47;10.50;;;;;;;-1.93;88.76;101003.63;5050042;28;20174;-73
2022/03/03 03:10:46;;;;;;;13.27;9.43;;;;;;;-2.08;88.91;101003.91;5050307;28;20265;-74
2022/03/03 03:13:14;;;;;;;10.77;8.67;;;;;;;-2.21;89.18;101002.13;5050477;28;20171;-73
2022/03/03 03:15:40;;;;;;;16.70;6.60;;;;;;;-2.32;89.68;100993.94;5050198;28;20758;-73
2022/03/03 03:18:11;;;;;;;14.20;9.90;;;;;;;-2.42;90.42;101000.56;5049881;28;20410;-74
2022/03/03 03:20:42;;;;;;;9.83;8.60;;;;;;;-2.35;91.40;100995.19;5050077;28;20414;-76
2022/03/03 03:23:09;;;;;;;11.13;9.37;;;;;;;-2.22;92.01;100995.13;5050213;28;20442;-74
2022/03/03 03:25:37;;;;;;;18.33;11.20;;;;;;;-2.46;92.87;100988.66;5049837;28;20435;-74
2022/03/03 03:28:05;;;;;;;12.47;8.80;;;;;;;-2.21;93.32;101001.28;5049946;28;20799;-73
2022/03/03 03:30:30;;;;;;;11.63;10.07;;;;;;;-2.12;92.74;101000.84;5050099;28;20429;-73
2022/03/03 03:32:56;;;;;;;11.43;10.30;;;;;;;-2.12;92.17;101000.03;5049855;28;20430;-74
2022/03/03 03:35:22;;;;;;;9.23;8.20;;;;;;;-2.16;91.86;100996.97;5049976;28;20203;-74
2022/03/03 03:37:47;;;;;;;10.47;8.27;;;;;;;-2.32;91.33;100985.91;5049763;28;20180;-73
2022/03/03 03:40:13;;;;;;;14.97;9.50;;;;;;;-2.35;90.91;100989.00;5049945;28;20213;-74
2022/03/03 03:42:38;;;;;;;11.37;9.80;;;;;;;-2.28;91.40;100982.59;5049992;28;20657;-75
2022/03/03 03:45:05;;;;;;;11.93;9.40;;;;;;;-2.24;91.48;100986.50;5049844;28;20176;-74
2022/03/03 03:47:30;;;;;;;10.80;8.33;;;;;;;-2.27;91.18;100978.91;5049525;28;20183;-73
2022/03/03 03:49:55;;;;;;;12.20;7.73;;;;;;;-2.40;90.70;100974.44;5049927;28;20637;-73
2022/03/03 03:52:21;;;;;;;8.70;7.43;;;;;;;-2.52;90.86;100957.41;5049832;28;20175;-74
2022/03/03 03:54:46;;;;;;;8.87;8.03;;;;;;;-2.63;91.50;100968.75;5049680;28;20542;-74
2022/03/03 03:57:11;;;;;;;11.50;9.47;;;;;;;-2.67;91.78;100958.69;5049373;28;20268;-74
2022/03/03 03:59:37;;;;;;;12.37;9.17;;;;;;;-2.74;91.79;100964.09;5049791;28;20190;-73
2022/03/03 04:02:02;;;;;;;9.50;8.53;;;;;;;-2.71;91.95;100958.31;5049610;28;20183;-74
2022/03/03 04:04:28;;;;;;;12.27;7.50;;;;;;;-2.65;92.73;100975.34;5053137;28;20517;-74
2022/03/03 04:06:53;;;;;;;11.00;8.83;;;;;;;-2.66;92.68;100963.84;5053219;28;20623;-75
2022/03/03 04:09:18;;;;;;;10.97;9.93;;;;;;;-2.68;92.84;100962.41;5053762;28;20266;-73
2022/03/03 04:11:44;;;;;;;12.70;8.80;;;;;;;-2.66;93.26;100969.19;5053486;28;20313;-73
2022/03/03 04:14:09;;;;;;;9.67;8.57;;;;;;;-2.73;94.15;100971.06;5053350;28;20179;-74
2022/03/03 04:16:35;;;;;;;18.80;10.63;;;;;;;-2.96;94.06;100971.53;5052786;28;20207;-74
2022/03/03 04:19:00;;;;;;;16.77;10.83;;;;;;;-2.94;95.13;100984.69;5053134;28;20186;-74
2022/03/03 04:21:26;;;;;;;14.23;12.30;;;;;;;-3.01;94.92;100977.53;5035241;28;20179;-78
2022/03/03 04:23:51;;;;;;;13.23;10.67;;;;;;;-3.01;95.77;101001.56;5053098;28;20642;-75
2022/03/03 04:26:17;;;;;;;14.80;10.73;;;;;;;-2.70;96.11;100987.50;5053232;28;20194;-74
2022/03/03 04:28:42;;;;;;;14.73;11.13;;;;;;;-2.48;95.62;100993.38;5052709;28;20270;-74
2022/03/03 04:31:07;;;;;;;13.17;11.40;;;;;;;-2.37;95.56;100999.94;5052979;28;20228;-74
2022/03/03 04:33:33;;;;;;;16.50;10.70;;;;;;;-2.14;95.65;100991.41;5052907;28;20182;-75
2022/03/03 04:35:58;;;;;;;13.97;11.47;;;;;;;-1.99;94.61;100988.44;5052945;28;20757;-75
2022/03/03 04:38:25;;;;;;;15.03;11.30;;;;;;;-1.99;94.19;100991.09;5052714;28;20175;-74
2022/03/03 04:40:50;;;;;;;13.33;10.83;;;;;;;-1.86;93.32;100993.69;5035199;28;20186;-73
2022/03/03 04:43:16;;;;;;;17.20;11.93;;;;;;;-1.86;91.89;100986.50;5053082;28;20171;-73
2022/03/03 04:45:42;;;;;;;14.00;10.33;;;;;;;-1.85;90.37;100993.47;5035038;28;20533;-73
2022/03/03 04:48:08;;;;;;;12.83;11.10;;;;;;;-2.17;90.13;100992.66;5052514;28;20206;-73
2022/03/03 04:50:33;;;;;;;14.03;10.87;;;;;;;-2.20;89.99;100989.56;5053124;28;20249;-73
2022/03/03 04:52:59;;;;;;;14.07;11.03;;;;;;;-2.04;90.30;100982.88;5053448;28;20256;-73
2022/03/03 04:55:25;;;;;;;12.80;10.93;;;;;;;-1.96;90.00;100978.09;5052740;28;20203;-74
2022/03/03 04:57:50;;;;;;;11.60;10.40;;;;;;;-1.96;89.98;100980.78;5035086;28;20186;-74
2022/03/03 05:00:16;;;;;;;28.73;11.03;;;;;;;-1.89;89.67;100986.06;5052675;28;20617;-73
2022/03/03 05:02:42;;;;;;;12.77;10.97;;;;;;;-1.98;89.00;100985.53;5049384;28;20183;-73
2022/03/03 05:05:07;;;;;;;12.60;11.30;;;;;;;-2.07;88.63;100997.50;5050940;28;20179;-73
2022/03/03 05:07:33;;;;;;;15.80;11.40;;;;;;;-2.11;88.88;100994.44;5051935;28;20650;-73
2022/03/03 05:09:58;;;;;;;18.03;11.23;;;;;;;-2.01;89.29;100985.97;5052152;28;20576;-73
2022/03/03 05:12:24;;;;;;;16.93;10.40;;;;;;;-1.91;89.33;100986.28;5052229;28;20634;-73
2022/03/03 05:14:50;;;;;;;15.17;10.90;;;;;;;-1.93;88.87;100984.88;5050775;28;20175;-73
2022/03/03 05:17:15;;;;;;;14.40;10.27;;;;;;;-1.92;89.07;100983.84;5052030;28;20213;-73
2022/03/03 05:19:40;;;;;;;14.23;11.27;;;;;;;-1.87;88.73;100974.13;5052098;28;20207;-74
2022/03/03 05:22:06;;;;;;;13.97;11.03;;;;;;;-1.93;88.20;100995.59;5052039;28;20229;-73
2022/03/03 05:24:31;;;;;;;12.10;10.90;;;;;;;-1.91;87.95;100986.28;5051627;28;20210;-74
2022/03/03 05:26:57;;;;;;;11.27;10.13;;;;;;;-2.11;87.44;100986.44;5051846;28;20214;-74
2022/03/03 05:29:22;;;;;;;11.47;10.27;;;;;;;-2.33;87.24;100985.09;5051808;28;20252;-73
2022/03/03 05:31:47;;;;;;;12.23;7.73;;;;;;;-2.59;87.23;100975.34;5051795;28;20179;-73
2022/03/03 05:34:13;;;;;;;9.70;8.70;;;;;;;-2.73;87.77;100971.06;5051751;28;20179;-73
2022/03/03 05:36:40;;;;;;;10.37;9.33;;;;;;;-2.81;89.08;100973.97;5051612;28;20195;-73
2022/03/03 05:39:06;;;;;;;12.00;10.33;;;;;;;-2.84;89.84;100982.41;5051633;28;20623;-73
2022/03/03 05:41:32;;;;;;;11.83;10.63;;;;;;;-3.21;91.50;100986.59;5051711;28;20450;-73
2022/03/03 05:43:58;;;;;;;22.77;11.90;;;;;;;-3.48;93.10;100989.25;5051459;28;20317;-73
2022/03/03 05:46:24;;;;;;;11.47;9.90;;;;;;;-3.71;94.58;100995.03;5051851;28;20220;-73
2022/03/03 05:48:50;;;;;;;13.83;10.60;;;;;;;-3.34;96.16;100996.25;5051397;28;20888;-73
2022/03/03 05:51:18;;;;;;;11.03;9.83;;;;;;;-3.05;96.20;100994.97;5051360;28;20282;-73
2022/03/03 05:53:44;;;;;;;12.37;9.87;;;;;;;-2.90;96.68;101001.94;5051378;28;20483;-74
2022/03/03 05:56:11;;;;;;;17.03;12.77;;;;;;;-3.13;96.00;100992.53;5051223;28;20469;-73
2022/03/03 05:58:48;;;;;;;14.50;11.50;;;;;;;-3.32;96.36;101001.41;5050885;28;20697;-73
2022/03/03 06:01:15;;;;;;;12.13;10.13;;;;;;;-2.94;96.14;101006.06;5051192;28;20648;-73
2022/03/03 06:03:45;;;;;;;13.40;10.43;;;;;;;-2.76;95.56;100999.03;5051623;28;20422;-73
2022/03/03 06:06:19;;;;;;;13.20;10.73;;;;;;;-2.70;95.30;100998.22;5051130;28;20417;-73
2022/03/03 06:09:16;;;;;;;12.50;9.00;;;;;;;-2.64;94.56;100991.19;5051013;28;20429;-74
2022/03/03 06:12:03;;;;;;;14.93;9.87;;;;;;;-2.75;93.63;100995.34;5051085;28;20776;-73
2022/03/03 06:14:39;;;;;;;13.37;10.63;;;;;;;-2.72;93.49;100999.44;5050784;28;20429;-73
2022/03/03 06:17:05;;;;;;;9.57;8.67;;;;;;;-2.88;93.16;100987.38;5050867;28;20583;-73
2022/03/03 06:19:41;;;;;;;15.07;9.37;;;;;;;-3.04;93.07;100983.28;5050934;28;20478;-73
2022/03/03 06:22:08;;;;;;;11.17;8.53;;;;;;;-3.12;93.31;100980.81;5050950;28;20433;-75
2022/03/03 06:24:34;;;;;;;10.90;9.77;;;;;;;-3.07;93.22;100980.19;5050531;28;20446;-73
2022/03/03 06:27:00;;;;;;;20.40;12.10;;;;;;;-3.10;94.24;100988.63;5050220;28;20489;-74
2022/03/03 06:29:25;;;;;;;13.13;10.57;;;;;;;-3.33;95.84;100994.41;5050630;28;20425;-73
2022/03/03 06:31:51;;;;;;;12.03;9.77;;;;;;;-3.09;96.75;100985.75;5050704;28;20555;-73
2022/03/03 06:34:16;;;;;;;13.50;10.23;;;;;;;-3.11;96.34;100982.47;5050626;28;20270;-73
2022/03/03 06:36:41;;;;;;;10.60;9.07;;;;;;;-3.12;96.21;100975.47;5050905;28;20274;-73
2022/03/03 06:39:07;;;;;;;14.73;9.67;;;;;;;-3.09;96.49;100985.75;5050595;28;20183;-73
2022/03/03 06:41:32;;;;;;;14.43;10.43;;;;;;;-3.01;96.79;100995.41;5050556;28;20199;-73
2022/03/03 06:43:57;;;;;;;11.37;8.50;;;;;;;-3.07;96.39;100983.69;5050443;28;20194;-73
2022/03/03 06:46:23;;;;;;;10.60;8.93;;;;;;;-3.16;96.25;100976.13;5050519;28;20183;-74
2022/03/03 06:48:49;;;;;;;17.57;9.00;;;;;;;-3.18;96.42;100967.47;5050284;28;20630;-73
2022/03/03 06:51:15;;;;;;;11.27;9.53;;;;;;;-3.09;97.51;100977.72;5050393;28;20251;-75
2022/03/03 06:53:44;;;;;;;16.60;11.30;;;;;;;-2.95;98.55;100973.19;5050592;28;20370;-73
2022/03/03 06:56:11;;;;;;;16.37;11.67;;;;;;;-2.92;98.98;100983.44;5050243;28;20526;-74
2022/03/03 06:58:37;;;;;;;18.07;11.93;;;;;;;-2.86;100.00;100987.16;5050203;28;20418;-73
2022/03/03 07:01:08;;;;;;;16.60;11.50;;;;;;;-2.62;100.00;100988.28;5050385;28;20479;-73
2022/03/03 07:03:35;;;;;;;15.97;10.70;;;;;;;-2.50;100.00;100998.13;5050278;28;20171;-73
2022/03/03 07:06:02;;;;;;;19.97;12.57;;;;;;;-2.30;100.00;100997.25;5050120;28;20414;-73
2022/03/03 07:08:27;;;;;;;16.97;11.67;;;;;;;-2.15;100.00;100990.56;5050139;28;20171;-72
2022/03/03 07:10:53;;;;;;;13.93;10.50;;;;;;;-2.31;100.00;100979.56;5050206;28;20414;-73
2022/03/03 07:13:19;;;;;;;15.30;12.03;;;;;;;-2.38;99.76;100986.78;5050207;28;20178;-73
2022/03/03 07:15:50;;;;;;;18.80;11.40;;;;;;;-2.22;99.11;100988.94;5032306;28;20674;-73
2022/03/03 07:18:24;;;;;;;20.03;12.40;;;;;;;-2.13;98.54;100988.50;5049760;28;20167;-73
2022/03/03 07:21:08;;;;;;;12.67;9.73;;;;;;;-2.06;98.20;100990.31;5050289;28;20505;-73
2022/03/03 07:23:39;;;;;;;13.63;11.70;;;;;;;-2.07;98.03;100988.66;5044984;28;20955;-75
2022/03/03 07:26:08;;;;;;;14.63;11.50;;;;;;;-2.02;98.13;100989.69;5044369;28;20491;-75
2022/03/03 07:28:34;;;;;;;14.10;12.10;;;;;;;-1.97;98.33;100992.53;5049280;28;20422;-75
2022/03/03 07:31:01;;;;;;;18.47;12.70;;;;;;;-1.88;98.37;100996.59;5049766;28;20429;-77
2022/03/03 07:33:39;;;;;;;18.83;12.53;;;;;;;-1.87;98.63;101003.59;5049957;28;20409;-75
2022/03/03 07:36:07;;;;;;;14.87;12.53;;;;;;;-1.84;99.09;100995.13;5049834;28;20845;-75
2022/03/03 07:38:36;;;;;;;11.63;9.87;;;;;;;-1.75;98.91;100979.59;5051637;28;20418;-77
2022/03/03 07:41:03;;;;;;;14.73;11.83;;;;;;;-1.72;98.15;100983.72;5053819;28;20909;-74
2022/03/03 07:43:29;;;;;;;17.33;12.30;;;;;;;-1.66;98.03;100991.69;5053552;28;20756;-75
2022/03/03 07:45:54;;;;;;;15.33;11.17;;;;;;;-1.61;97.38;100975.78;5053782;28;20508;-74
2022/03/03 07:48:23;;;;;;;7.80;6.97;;;;;;;-1.56;96.77;100967.09;5053575;28;20182;-76
2022/03/03 07:50:48;;;;;;;18.33;11.67;;;;;;;-1.53;96.39;100970.16;5053684;28;20182;-76
2022/03/03 07:53:14;;;;;;;20.67;11.23;;;;;;;-1.47;95.92;100970.31;5053525;28;20772;-73
2022/03/03 07:55:47;;;;;;;17.00;11.60;;;;;;;-1.40;95.98;100963.06;5053462;28;20667;-75
2022/03/03 07:58:18;;;;;;;8.00;7.13;;;;;;;-1.28;95.51;100966.66;5053115;28;20219;-75
2022/03/03 08:00:49;;;;;;;13.37;9.77;;;;;;;-1.21;94.69;100964.72;5053735;28;20414;-75
2022/03/03 08:03:19;;;;;;;15.50;10.67;;;;;;;-1.15;94.04;100963.84;5053408;28;20418;-75
2022/03/03 08:05:48;;;;;;;10.53;9.40;;;;;;;-1.05;93.81;100969.50;5053410;28;20905;-75
2022/03/03 08:08:15;;;;;;;19.27;10.97;;;;;;;-0.93;92.95;100972.28;5053274;28;20414;-75
2022/03/03 08:10:43;;;;;;;15.93;10.83;;;;;;;-0.84;92.38;100970.97;5053241;28;20432;-77
2022/03/03 08:13:11;;;;;;;13.90;12.47;;;;;;;-0.74;91.51;100968.56;5053293;28;20467;-76
2022/03/03 08:15:38;;;;;;;21.77;13.07;;;;;;;-0.71;90.98;100975.38;5053198;28;20682;-76
2022/03/03 08:18:04;;;;;;;16.03;12.73;;;;;;;-0.56;90.73;100980.34;5035036;28;20464;-77
2022/03/03 08:20:33;;;;;;;20.60;15.27;;;;;;;-0.45;90.49;100987.63;5053140;28;20206;-78
2022/03/03 08:23:00;;;;;;;20.60;14.93;;;;;;;-0.37;89.57;100998.06;5050235;28;20179;-78
2022/03/03 08:25:25;;;;;;;20.40;14.50;;;;;;;-0.21;88.38;100999.31;5050020;28;20171;-78
2022/03/03 08:27:53;;;;;;;16.70;13.90;;;;;;;-0.16;87.58;101010.19;5052764;28;20701;-76
2022/03/03 08:30:18;;;;;;;20.10;14.77;;;;;;;-0.07;87.88;101004.28;5053086;28;20635;-75
2022/03/03 08:33:11;;;;;;;18.20;13.80;;;;;;;0.09;87.95;101012.75;5051120;28;20224;-73
2022/03/03 08:35:40;;;;;;;17.80;14.57;;;;;;;0.26;88.73;101008.34;5053093;28;20187;-77
2022/03/03 08:38:31;;;;;;;23.13;14.30;;;;;;;0.41;88.93;101011.44;5052885;28;20500;-73
2022/03/03 08:40:58;;;;;;;24.10;14.47;;;;;;;0.45;88.97;101019.88;5028417;28;20183;-77
2022/03/03 08:43:26;;;;;;;22.00;14.70;;;;;;;0.48;88.15;101020.22;5052783;28;20391;-78
2022/03/03 08:45:53;;;;;;;24.50;15.80;;;;;;;0.53;88.07;101023.03;5052628;28;20266;-80
2022/03/03 08:48:19;;;;;;;22.17;15.50;;;;;;;0.52;88.10;101013.34;5052597;28;20510;-79
2022/03/03 08:50:48;;;;;;;26.33;16.80;;;;;;;0.46;88.00;101013.44;5052553;28;20168;-78
2022/03/03 08:53:14;;;;;;;18.80;15.37;;;;;;;0.61;88.12;101016.50;5052565;28;20175;-79
2022/03/03 08:55:39;;;;;;;20.10;15.23;;;;;;;0.65;87.39;101019.56;5052526;28;20199;-76
2022/03/03 08:58:10;;;;;;;17.90;13.50;;;;;;;0.59;86.87;101013.25;5052235;28;20403;-77
2022/03/03 09:00:36;;;;;;;22.23;14.97;;;;;;;0.75;86.68;101020.63;5052594;28;20262;-78
2022/03/03 09:03:03;;;;;;;18.57;15.13;;;;;;;0.82;87.04;101013.25;5052673;28;20418;-76
2022/03/03 09:05:29;;;;;;;19.43;16.03;;;;;;;0.89;86.53;101013.97;5052681;28;20175;-78
2022/03/03 09:07:54;;;;;;;23.93;17.17;;;;;;;0.97;86.56;101020.84;5050242;28;20669;-79
2022/03/03 09:10:19;;;;;;;18.50;14.63;;;;;;;1.09;85.13;101024.38;5051713;28;20179;-78
2022/03/03 09:12:45;;;;;;;22.00;15.00;;;;;;;1.15;84.08;101012.66;5053084;28;20561;-78
2022/03/03 09:15:11;;;;;;;17.13;12.83;;;;;;;1.24;84.11;101012.31;5053060;28;20198;-78
2022/03/03 09:17:37;;;;;;;17.20;13.57;;;;;;;1.32;83.83;101010.09;5052615;28;20215;-77
2022/03/03 09:20:06;;;;;;;17.90;14.80;;;;;;;1.34;83.36;101012.53;5052949;28;20226;-79
2022/03/03 09:22:31;;;;;;;21.47;15.93;;;;;;;1.47;84.03;101009.59;5052988;28;20751;-78
2022/03/03 09:24:57;;;;;;;23.03;15.77;;;;;;;1.51;83.66;101005.38;5053024;28;20262;-76
2022/03/03 09:27:23;;;;;;;19.10;15.20;;;;;;;1.55;82.37;101001.13;5052541;28;20531;-79
2022/03/03 09:29:48;;;;;;;23.27;14.90;;;;;;;1.62;82.35;101003.72;5052106;28;20423;-80
2022/03/03 09:32:13;;;;;;;23.10;16.60;;;;;;;1.75;82.11;101009.66;5052327;28;20693;-79
2022/03/03 09:34:39;;;;;;;21.50;17.47;;;;;;;1.89;81.49;101015.56;5052205;28;20212;-78
2022/03/03 09:37:05;;;;;;;22.40;15.83;;;;;;;1.82;81.10;101011.38;5051848;28;20191;-78
2022/03/03 09:39:30;;;;;;;21.77;16.80;;;;;;;1.85;80.55;101010.88;5051852;28;20635;-79
2022/03/03 09:41:56;;;;;;;22.50;16.80;;;;;;;1.90;80.21;101008.31;5051205;28;20265;-78
2022/03/03 09:44:26;;;;;;;20.63;14.07;;;;;;;1.96;79.34;101004.66;5051874;28;20678;-78
2022/03/03 09:46:52;;;;;;;23.10;15.93;;;;;;;2.13;79.79;101002.81;5048160;28;20682;-75
2022/03/03 09:49:19;;;;;;;22.80;16.47;;;;;;;2.28;79.94;101002.25;5031919;28;20219;-79
2022/03/03 09:51:45;;;;;;;24.70;17.10;;;;;;;2.41;79.64;101003.84;5051607;28;20533;-77
2022/03/03 09:54:10;;;;;;;22.90;17.60;;;;;;;2.32;78.76;101000.75;5051657;28;20176;-78
2022/03/03 09:56:37;;;;;;;22.80;16.07;;;;;;;2.57;79.52;101003.03;5051643;28;20531;-80
2022/03/03 09:59:03;;;;;;;25.73;17.27;;;;;;;2.59;77.97;100995.50;5051702;28;20574;-79
2022/03/03 10:01:31;;;;;;;26.87;18.33;;;;;;;2.60;77.41;100998.00;5051186;28;20528;-77
2022/03/03 10:04:24;;;;;;;22.73;16.47;;;;;;;2.82;76.73;101003.44;5051351;28;20179;-78
2022/03/03 10:06:51;;;;;;;21.37;15.93;;;;;;;2.93;75.52;101007.94;5051598;28;20197;-79
2022/03/03 10:09:17;;;;;;;21.40;15.17;;;;;;;3.02;75.80;101004.81;5033695;28;20630;-79
2022/03/03 10:11:49;;;;;;;22.50;16.00;;;;;;;3.06;75.16;101005.97;5051569;28;20648;-76
2022/03/03 10:14:25;;;;;;;20.07;16.27;;;;;;;3.09;74.63;100995.50;5051742;28;20187;-77
2022/03/03 10:16:50;;;;;;;18.77;16.37;;;;;;;3.06;74.78;100989.78;5051370;28;20218;-77
2022/03/03 10:19:16;;;;;;;19.87;15.67;;;;;;;3.32;75.34;100999.03;5051351;28;20314;-77
2022/03/03 10:21:43;;;;;;;24.47;16.87;;;;;;;3.41;73.44;100995.66;5051518;28;20207;-77
2022/03/03 10:24:16;;;;;;;24.87;17.20;;;;;;;3.47;73.69;101001.94;5051288;28;20190;-76
2022/03/03 10:26:44;;;;;;;23.77;17.77;;;;;;;3.56;73.58;101003.94;5051099;28;20264;-74
2022/03/03 10:29:20;;;;;;;26.47;18.50;;;;;;;3.49;73.88;100995.22;5051077;28;20551;-73
2022/03/03 10:31:50;;;;;;;18.13;15.37;;;;;;;3.57;73.30;100997.47;5051512;28;20182;-73
2022/03/03 10:34:30;;;;;;;21.20;16.23;;;;;;;3.77;73.35;101012.31;5051140;28;20286;-73
2022/03/03 10:37:03;;;;;;;20.43;17.17;;;;;;;3.92;73.08;101007.09;5048874;28;20336;-79
2022/03/03 10:39:54;;;;;;;26.17;17.87;;;;;;;3.91;72.97;100996.53;5050411;28;20187;-74
2022/03/03 10:42:22;;;;;;;23.83;17.53;;;;;;;3.89;73.31;100994.06;5051105;28;20171;-77
2022/03/03 10:44:49;;;;;;;26.90;16.90;;;;;;;4.08;73.20;101006.19;5051331;28;20477;-76
2022/03/03 10:47:21;;;;;;;17.10;15.30;;;;;;;4.23;72.68;100999.31;5051124;28;20175;-74
2022/03/03 10:49:49;;;;;;;20.03;16.73;;;;;;;4.17;72.66;100999.22;5048206;28;20570;-75
2022/03/03 10:52:16;;;;;;;24.23;16.30;;;;;;;4.21;71.55;100996.88;5051243;28;20181;-74
2022/03/03 10:54:58;;;;;;;20.63;16.83;;;;;;;4.35;71.15;100998.06;5051159;28;20175;-75
2022/03/03 10:57:33;;;;;;;18.97;15.53;;;;;;;4.43;70.04;100988.66;5050681;28;20574;-75
2022/03/03 11:00:03;;;;;;;18.03;15.10;;;;;;;4.43;69.72;100989.47;5050748;28;20175;-75
2022/03/03 11:02:29;;;;;;;19.27;16.13;;;;;;;4.54;70.39;100995.81;5050268;28;20583;-73
2022/03/03 11:04:55;;;;;;;19.93;16.47;;;;;;;4.55;70.33;100994.72;5051013;28;20171;-74
2022/03/03 11:07:22;;;;;;;18.63;16.20;;;;;;;4.60;69.90;100986.63;5050296;28;20171;-73
2022/03/03 11:09:49;;;;;;;20.47;14.47;;;;;;;4.66;68.85;100990.22;5050953;28;20173;-73
2022/03/03 11:12:15;;;;;;;19.57;15.60;;;;;;;4.74;69.37;100987.84;5049988;28;20159;-73
2022/03/03 11:14:42;;;;;;;18.27;15.53;;;;;;;4.69;68.29;100982.41;5050618;28;20208;-73